Palm Beach, FL (33480)

1:19 PM EDT on April 24, 2017 (GMT -0400)
Downtown | | Change Station

Elev 0 ft 26.71 °N, 80.05 °W | Updated 6 minutes ago

Partly Cloudy
Partly Cloudy
84.4 °F
Feels Like 87 °F
N
3.1
Wind Variable Wind from WNW
Gusts 6.2 mph

Today
High -- | Low -- °F
--% Chance of Precip.
Yesterday
High -- | Low -- °F
Precip. -- in
Pressure 29.77 in
Visibility 10.0 miles
Clouds Scattered Clouds 3400 ft
Heat Index 87 °F
Dew Point 66 °F
Humidity 54%
Rainfall Not available.
Snow Depth Not available.
6:47 AM 7:49 PM
Waning Crescent, 5% visible
METAR KPBI 241653Z 24014G21KT 10SM SCT034 27/18 A2977 RMK AO2 SLP080 T02670178
Pressure 29.77 in
Visibility 10.0 miles
Clouds Scattered Clouds 3400 ft
Heat Index 87 °F
Dew Point 66 °F
Humidity 54%
Rainfall Not available.
Snow Depth Not available.
6:47 AM 7:49 PM
Waning Crescent, 5% visible
METAR KPBI 241653Z 24014G21KT 10SM SCT034 27/18 A2977 RMK AO2 SLP080 T02670178

Get Severe Weather Alerts

Thanks for signing up!

Be on the lookout for a verification email in your inbox.

You'll start receiving the daily forecast at 8 AM.

×

10-Day Weather Forecast

Almanac

Astronomy

Apr. 24, 2017 Rise Set
Actual Time
Civil Twilight
Nautical Twilight
Astronomical Twilight
Moon
Length of Visible Light
Length of Day
Tomorrow will be .
, % of the Moon is Illuminated

Today's Extremes

State Highs State Lows

Community

WunderPhotos

WunderBlog® & News

Nearby

Air Quality

  Air Quality AQ Index Pollutant
Not available.

Snow Depth

Station Depth Elevation

Earthquake Activity

City Distance Mag. Time & Date
Minimum magnitude displayed is 2.5.

Coastal Water Temperatures

Place Temperature

Stations

Nearby Weather Stations

Station Location Temp. Windchill Dew Point Humidity Wind Precip. Elev Updated Type
                   

Watches & Warnings

There are currently no watches in effect.